| time (UTC) | temp F | wind direction | speed knots | gust knots | rain 1hr in | rain 24hr in | rain mn in | humidity % | barometer mb |
| 20260505200257 | 50 | 29 | 4.3 | 7.0 | 0.00 | 0.00 | 0.00 | 31 | 1017.7 |
| 20260505195752 | 49 | 342 | 11.3 | 13.0 | 0.00 | 0.00 | 0.00 | 32 | 1017.7 |
| 20260505195251 | 51 | 323 | 10.4 | 13.0 | 0.00 | 0.00 | 0.00 | 31 | 1017.6 |
| 20260505194747 | 52 | 322 | 11.3 | 13.0 | 0.00 | 0.00 | 0.00 | 29 | 1017.6 |
| 20260505194244 | 51 | 334 | 10.4 | 13.0 | 0.00 | 0.00 | 0.00 | 30 | 1017.8 |
| 20260505193739 | 51 | 343 | 7.8 | 8.7 | 0.00 | 0.00 | 0.00 | 30 | 1017.7 |
| 20260505193237 | 51 | 347 | 7.0 | 8.7 | 0.00 | 0.00 | 0.00 | 32 | 1017.6 |
| 20260505192736 | 48 | 344 | 8.7 | 9.6 | 0.00 | 0.00 | 0.00 | 35 | 1017.9 |
| 20260505192233 | 49 | 354 | 7.8 | 13.0 | 0.00 | 0.00 | 0.00 | 34 | 1017.8 |
| 20260505191731 | 49 | 309 | 7.8 | 7.8 | 0.00 | 0.00 | 0.00 | 34 | 1018.0 |
| 20260505191229 | 48 | 346 | 12.2 | 18.2 | 0.00 | 0.00 | 0.00 | 33 | 1017.8 |
| 20260505190725 | 50 | 327 | 13.9 | 15.6 | 0.00 | 0.00 | 0.00 | 31 | 1018.0 |
| 20260505190225 | 50 | 354 | 7.0 | 7.8 | 0.00 | 0.00 | 0.00 | 33 | 1017.7 |
| 20260505185722 | 49 | 333 | 8.7 | 11.3 | 0.00 | 0.00 | 0.00 | 32 | 1017.9 |
| 20260505185218 | 51 | 1 | 7.0 | 7.8 | 0.00 | 0.00 | 0.00 | 34 | 1017.9 |
| 20260505184714 | 51 | 354 | 6.1 | 8.7 | 0.00 | 0.00 | 0.00 | 32 | 1017.6 |
| 20260505184212 | 49 | 328 | 12.2 | 13.9 | 0.00 | 0.00 | 0.00 | 34 | 1018.0 |
| 20260505183709 | 48 | 313 | 7.0 | 7.8 | 0.00 | 0.00 | 0.00 | 34 | 1017.8 |
| 20260505183206 | 49 | 1 | 6.1 | 8.7 | 0.00 | 0.00 | 0.00 | 33 | 1017.9 |
| 20260505182702 | 50 | 340 | 6.1 | 7.0 | 0.00 | 0.00 | 0.00 | 33 | 1017.9 |
| 20260505182159 | 49 | 11 | 5.2 | 7.0 | 0.00 | 0.00 | 0.00 | 35 | 1018.0 |
| 20260505181656 | 50 | 349 | 5.2 | 7.0 | 0.00 | 0.00 | 0.00 | 36 | 1018.0 |
| 20260505181153 | 49 | 1 | 7.0 | 8.7 | 0.00 | 0.00 | 0.00 | 38 | 1017.9 |
| 20260505180649 | 46 | 324 | 4.3 | 5.2 | 0.00 | 0.00 | 0.00 | 41 | 1017.9 |
| 20260505180147 | 47 | 351 | 10.4 | 12.2 | 0.00 | 0.00 | 0.00 | 40 | 1018.0 |
| 20260505175643 | 47 | 1 | 9.6 | 11.3 | 0.00 | 0.00 | 0.00 | 41 | 1018.1 |
| 20260505175139 | 48 | 345 | 6.1 | 7.0 | 0.00 | 0.00 | 0.00 | 39 | 1018.0 |
| 20260505174636 | 47 | 355 | 7.0 | 7.8 | 0.00 | 0.00 | 0.00 | 40 | 1018.0 |
| 20260505174132 | 48 | 337 | 6.1 | 7.0 | 0.00 | 0.00 | 0.00 | 38 | 1017.9 |
| 20260505173629 | 48 | 315 | 4.3 | 6.1 | 0.00 | 0.00 | 0.00 | 40 | 1018.0 |
| 20260505173126 | 48 | 17 | 7.0 | 7.8 | 0.00 | 0.00 | 0.00 | 42 | 1018.1 |
| 20260505172623 | 48 | 25 | 5.2 | 7.0 | 0.00 | 0.00 | 0.00 | 44 | 1018.1 |
| 20260505172120 | 48 | 358 | 7.0 | 7.8 | 0.00 | 0.00 | 0.00 | 42 | 1018.2 |
| 20260505171614 | 46 | 10 | 6.1 | 7.8 | 0.00 | 0.00 | 0.00 | 48 | 1018.2 |
| 20260505171112 | 47 | 9 | 7.8 | 9.6 | 0.00 | 0.00 | 0.00 | 47 | 1018.2 |
| 20260505170609 | 46 | 24 | 5.2 | 6.1 | 0.00 | 0.00 | 0.00 | 50 | 1018.2 |
| 20260505170105 | 46 | 18 | 5.2 | 7.0 | 0.00 | 0.00 | 0.00 | 50 | 1018.3 |
| 20260505165600 | 44 | 1 | 3.5 | 3.5 | 0.00 | 0.00 | 0.00 | 55 | 1018.2 |
| 20260505165056 | 44 | 342 | 7.8 | 8.7 | 0.00 | 0.00 | 0.00 | 53 | 1018.2 |
| 20260505164552 | 43 | 338 | 3.5 | 3.5 | 0.00 | 0.00 | 0.00 | 56 | 1018.4 |
| 20260505164050 | 43 | 0 | 5.2 | 7.0 | 0.00 | 0.00 | 0.00 | 56 | 1018.2 |
| 20260505163548 | 43 | 342 | 4.3 | 6.1 | 0.00 | 0.00 | 0.00 | 56 | 1018.7 |
| 20260505163045 | 43 | 300 | 4.3 | 5.2 | 0.00 | 0.00 | 0.00 | 57 | 1018.2 |
| 20260505162543 | 43 | 289 | 6.1 | 7.0 | 0.00 | 0.00 | 0.00 | 57 | 1018.4 |
| 20260505162041 | 43 | 336 | 2.6 | 2.6 | 0.00 | 0.00 | 0.00 | 58 | 1018.3 |
| 20260505161537 | 42 | 295 | 1.7 | 1.7 | 0.00 | 0.00 | 0.00 | 58 | 1018.3 |
| 20260505161035 | 42 | 349 | 4.3 | 6.1 | 0.00 | 0.00 | 0.00 | 59 | 1018.2 |
| 20260505160532 | 43 | 297 | 3.5 | 5.2 | 0.00 | 0.00 | 0.00 | 58 | 1018.3 |
| 20260505153009 | 41 | 312 | 0.9 | 0.9 | 0.00 | 0.00 | 0.00 | 61 | 1018.6 |
| 20260505152506 | 41 | 288 | 0.9 | 1.7 | 0.00 | 0.00 | 0.00 | 61 | 1018.7 |
| 20260505152001 | 41 | 263 | 1.7 | 1.7 | 0.00 | 0.00 | 0.00 | 61 | 1018.6 |
| 20260505151457 | 41 | 277 | 0.9 | 0.9 | 0.00 | 0.00 | 0.00 | 61 | 1018.7 |
| 20260505150954 | 41 | 271 | 1.7 | 1.7 | 0.00 | 0.00 | 0.00 | 61 | 1018.6 |
| 20260505150451 | 41 | 294 | 3.5 | 3.5 | 0.00 | 0.00 | 0.00 | 61 | 1018.6 |
| 20260505140421 | 39 | 183 | 0.9 | 0.9 | 0.00 | 0.00 | 0.00 | 73 | 1018.7 |
| 20260505124834 | 36 | 128 | 5.2 | 6.1 | 0.00 | 0.00 | 0.00 | 84 | 1018.0 |
| 20260505124331 | 36 | 123 | 5.2 | 6.1 | 0.00 | 0.00 | 0.00 | 85 | 1018.0 |
| 20260505123827 | 36 | 116 | 5.2 | 6.1 | 0.00 | 0.00 | 0.00 | 84 | 1018.0 |
| 20260505123324 | 36 | 79 | 6.1 | 7.0 | 0.00 | 0.00 | 0.00 | 83 | 1018.2 |
| 20260505122820 | 37 | 102 | 3.5 | 3.5 | 0.00 | 0.00 | 0.00 | 80 | 1018.1 |
| 20260505122318 | 38 | 80 | 2.6 | 2.6 | 0.00 | 0.00 | 0.00 | 78 | 1017.9 |
| 20260505121814 | 38 | 65 | 3.5 | 3.5 | 0.00 | 0.00 | 0.00 | 76 | 1017.8 |
| 20260505121312 | 38 | 61 | 1.7 | 2.6 | 0.00 | 0.00 | 0.00 | 74 | 1017.8 |
| 20260505120808 | 38 | 55 | 3.5 | 6.1 | 0.00 | 0.00 | 0.00 | 73 | 1018.0 |
| 20260505120304 | 38 | 50 | 1.7 | 1.7 | 0.00 | 0.00 | 0.00 | 74 | 1017.7 |
| 20260505115802 | 38 | 74 | 5.2 | 6.1 | 0.00 | 0.00 | 0.00 | 72 | 1017.8 |
| 20260505115300 | 39 | 46 | 4.3 | 6.1 | 0.00 | 0.00 | 0.00 | 71 | 1017.7 |
| 20260505114757 | 39 | 73 | 0.9 | 0.9 | 0.00 | 0.00 | 0.00 | 69 | 1017.7 |
| 20260505114253 | 39 | 67 | 7.0 | 7.0 | 0.00 | 0.00 | 0.00 | 67 | 1017.4 |
| 20260505113750 | 39 | 29 | 3.5 | 3.5 | 0.00 | 0.00 | 0.00 | 67 | 1017.6 |
| 20260505113247 | 39 | 349 | 2.6 | 3.5 | 0.00 | 0.00 | 0.00 | 66 | 1017.7 |
| 20260505112742 | 39 | 328 | 2.6 | 2.6 | 0.00 | 0.00 | 0.00 | 67 | 1017.6 |
| 20260505112241 | 39 | 318 | 2.6 | 3.5 | 0.00 | 0.00 | 0.00 | 68 | 1017.6 |
| 20260505111740 | 39 | 313 | 3.5 | 5.2 | 0.00 | 0.00 | 0.00 | 68 | 1017.5 |
| 20260505111237 | 40 | 2 | 2.6 | 2.6 | 0.00 | 0.00 | 0.00 | 66 | 1017.6 |
| 20260505110732 | 40 | 24 | 2.6 | 3.5 | 0.00 | 0.00 | 0.00 | 66 | 1017.5 |
| 20260505110231 | 40 | 333 | 6.1 | 7.8 | 0.00 | 0.00 | 0.00 | 65 | 1017.4 |
| 20260505102206 | 39 | 289 | 1.7 | 2.6 | 0.00 | 0.00 | 0.00 | 57 | 1017.4 |
| 20260505101705 | 39 | 284 | 3.5 | 3.5 | 0.00 | 0.00 | 0.00 | 55 | 1017.4 |
| 20260505101201 | 40 | 278 | 0.9 | 0.9 | 0.00 | 0.00 | 0.00 | 55 | 1017.2 |
| 20260505100656 | 39 | 278 | 2.6 | 2.6 | 0.00 | 0.00 | 0.00 | 54 | 1017.0 |
| 20260505100154 | 39 | 287 | 2.6 | 2.6 | 0.00 | 0.00 | 0.00 | 54 | 1017.2 |
| 20260505095649 | 39 | 295 | 3.5 | 3.5 | 0.00 | 0.00 | 0.00 | 53 | 1017.2 |
| 20260505095147 | 39 | 264 | 0.9 | 1.7 | 0.00 | 0.00 | 0.00 | 54 | 1017.0 |
| 20260505094643 | 39 | 261 | 0.9 | 0.9 | 0.00 | 0.00 | 0.00 | 54 | 1016.9 |
| 20260505094139 | 39 | 269 | 0.9 | 0.9 | 0.00 | 0.00 | 0.00 | 54 | 1016.7 |
| 20260505093636 | 38 | 258 | 1.7 | 1.7 | 0.00 | 0.00 | 0.00 | 54 | 1016.8 |
| 20260505093133 | 37 | 233 | 0.9 | 0.9 | 0.00 | 0.00 | 0.00 | 58 | 1016.8 |
| 20260505092630 | 37 | 234 | 1.7 | 1.7 | 0.00 | 0.00 | 0.00 | 59 | 1016.8 |
| 20260505092129 | 37 | 234 | 1.7 | 2.6 | 0.00 | 0.00 | 0.00 | 55 | 1016.8 |
| 20260505091625 | 38 | 237 | 1.7 | 1.7 | 0.00 | 0.00 | 0.00 | 55 | 1016.9 |
| 20260505091123 | 37 | 235 | 2.6 | 2.6 | 0.00 | 0.00 | 0.00 | 55 | 1016.7 |
| 20260505090621 | 37 | 220 | 3.5 | 3.5 | 0.00 | 0.00 | 0.00 | 57 | 1017.1 |
| 20260505090119 | 37 | 222 | 1.7 | 1.7 | 0.00 | 0.00 | 0.00 | 58 | 1016.7 |
| 20260505085616 | 37 | 223 | 3.5 | 5.2 | 0.00 | 0.00 | 0.00 | 58 | 1016.8 |
| 20260505085114 | 37 | 232 | 1.7 | 2.6 | 0.00 | 0.00 | 0.00 | 59 | 1016.7 |
| 20260505084612 | 37 | 232 | 2.6 | 3.5 | 0.00 | 0.00 | 0.00 | 59 | 1016.8 |
| 20260505084110 | 37 | 241 | 0.9 | 1.7 | 0.00 | 0.00 | 0.00 | 58 | 1016.8 |
| 20260505083607 | 37 | 242 | 2.6 | 3.5 | 0.00 | 0.00 | 0.00 | 57 | 1016.9 |
| 20260505083103 | 37 | 233 | 2.6 | 2.6 | 0.00 | 0.00 | 0.00 | 58 | 1016.8 |
| 20260505082559 | 37 | 233 | 1.7 | 1.7 | 0.00 | 0.00 | 0.00 | 59 | 1016.6 |
| 20260505082056 | 37 | 239 | 3.5 | 3.5 | 0.00 | 0.00 | 0.00 | 61 | 1016.8 |
| 20260505081553 | 37 | 261 | 2.6 | 2.6 | 0.00 | 0.00 | 0.00 | 61 | 1016.8 |
| 20260505081050 | 37 | 263 | 1.7 | 2.6 | 0.00 | 0.00 | 0.00 | 63 | 1016.9 |
| 20260505080546 | 37 | 269 | 0.9 | 1.7 | 0.00 | 0.00 | 0.00 | 58 | 1017.0 |
| 20260505080043 | 37 | 269 | 0.9 | 0.9 | 0.00 | 0.00 | 0.00 | 59 | 1017.0 |
| 20260505075538 | 37 | 270 | 1.7 | 1.7 | 0.00 | 0.00 | 0.00 | 62 | 1017.1 |
| 20260505075036 | 37 | 274 | 2.6 | 2.6 | 0.00 | 0.00 | 0.00 | 58 | 1017.2 |
| 20260505074533 | 37 | 272 | 1.7 | 1.7 | 0.00 | 0.00 | 0.00 | 61 | 1017.0 |
| 20260505074030 | 37 | 281 | 0.9 | 0.9 | 0.00 | 0.00 | 0.00 | 58 | 1016.9 |
| 20260505073527 | 37 | 281 | 0.0 | 0.0 | 0.00 | 0.00 | 0.00 | 59 | 1017.1 |
| 20260505073026 | 38 | 281 | 0.9 | 0.9 | 0.00 | 0.00 | 0.00 | 56 | 1016.8 |
| 20260505072521 | 37 | 281 | 0.0 | 0.9 | 0.00 | 0.00 | 0.00 | 57 | 1017.0 |
| 20260505072017 | 37 | 281 | 0.9 | 0.9 | 0.00 | 0.00 | 0.00 | 57 | 1016.9 |
| 20260505071513 | 37 | 281 | 0.9 | 0.9 | 0.00 | 0.00 | 0.00 | 59 | 1017.0 |
| 20260505071011 | 37 | 282 | 0.0 | 0.0 | 0.00 | 0.00 | 0.00 | 59 | 1017.2 |
| 20260505070508 | 38 | 282 | 0.9 | 0.9 | 0.00 | 0.00 | 0.00 | 60 | 1016.7 |
| 20260505070004 | 38 | 282 | 0.0 | 0.0 | 0.00 | 0.00 | 0.00 | 56 | 1017.0 |
| 20260505065500 | 37 | 283 | 1.7 | 1.7 | 0.00 | 0.00 | 0.00 | 54 | 1017.0 |
| 20260505064957 | 38 | 287 | 1.7 | 1.7 | 0.00 | 0.00 | 0.00 | 58 | 1016.9 |
| 20260505064453 | 38 | 318 | 1.7 | 1.7 | 0.00 | 0.00 | 0.00 | 56 | 1016.8 |
| 20260505063952 | 38 | 339 | 0.9 | 0.9 | 0.00 | 0.00 | 0.00 | 54 | 1016.7 |
| 20260505063448 | 37 | 345 | 0.0 | 0.9 | 0.00 | 0.00 | 0.00 | 55 | 1016.5 |
| 20260505062945 | 38 | 345 | 0.0 | 0.0 | 0.00 | 0.00 | 0.00 | 61 | 1016.6 |
| 20260505062442 | 38 | 345 | 0.0 | 0.0 | 0.00 | 0.00 | 0.00 | 54 | 1016.4 |
| 20260505061939 | 37 | 345 | 0.0 | 0.0 | 0.00 | 0.00 | 0.00 | 54 | 1016.3 |
| 20260505061437 | 38 | 346 | 0.0 | 0.0 | 0.00 | 0.00 | 0.00 | 54 | 1016.1 |
| 20260505060934 | 38 | 346 | 0.0 | 0.9 | 0.00 | 0.00 | 0.00 | 53 | 1016.4 |
| 20260505060431 | 38 | 348 | 0.0 | 0.0 | 0.00 | 0.00 | 0.00 | 51 | 1016.1 |
| 20260505055927 | 39 | 349 | 1.7 | 1.7 | 0.00 | 0.00 | 0.00 | 50 | 1016.3 |
| 20260505055423 | 39 | 350 | 0.0 | 0.0 | 0.00 | 0.00 | 0.00 | 51 | 1016.3 |
| 20260505054920 | 40 | 2 | 0.0 | 0.0 | 0.00 | 0.00 | 0.00 | 54 | 1016.3 |
| 20260505054418 | 40 | 12 | 0.9 | 0.9 | 0.00 | 0.00 | 0.00 | 50 | 1016.4 |
| 20260505053916 | 40 | 34 | 1.7 | 2.6 | 0.00 | 0.00 | 0.00 | 49 | 1016.3 |
| 20260505053412 | 41 | 44 | 1.7 | 1.7 | 0.00 | 0.00 | 0.00 | 50 | 1016.3 |
| 20260505052909 | 41 | 27 | 1.7 | 1.7 | 0.00 | 0.00 | 0.00 | 48 | 1016.0 |
| 20260505052406 | 41 | 31 | 2.6 | 2.6 | 0.00 | 0.00 | 0.00 | 48 | 1016.1 |
| 20260505051903 | 42 | 36 | 3.5 | 3.5 | 0.00 | 0.00 | 0.00 | 48 | 1016.1 |
| 20260505051401 | 42 | 30 | 2.6 | 3.5 | 0.00 | 0.00 | 0.00 | 47 | 1016.4 |
| 20260505050858 | 42 | 15 | 2.6 | 2.6 | 0.00 | 0.00 | 0.00 | 47 | 1016.3 |
| 20260505050357 | 42 | 0 | 3.5 | 3.5 | 0.00 | 0.00 | 0.00 | 46 | 1016.4 |
| 20260505041324 | 40 | 17 | 2.6 | 2.6 | 0.00 | 0.00 | 0.00 | 46 | 1015.9 |
| 20260505040821 | 39 | 1 | 2.6 | 2.6 | 0.00 | 0.00 | 0.00 | 47 | 1016.0 |
| 20260505040319 | 40 | 4 | 1.7 | 1.7 | 0.00 | 0.00 | 0.00 | 47 | 1015.9 |
| 20260505035815 | 40 | 15 | 1.7 | 1.7 | 0.00 | 0.00 | 0.00 | 46 | 1015.7 |
| 20260505035311 | 42 | 33 | 2.6 | 2.6 | 0.00 | 0.00 | 0.00 | 44 | 1015.7 |
| 20260505034809 | 41 | 24 | 1.7 | 2.6 | 0.00 | 0.00 | 0.00 | 44 | 1015.5 |
| 20260505034305 | 42 | 33 | 3.5 | 3.5 | 0.00 | 0.00 | 0.00 | 43 | 1015.7 |
| 20260505033802 | 42 | 27 | 3.5 | 3.5 | 0.00 | 0.00 | 0.00 | 42 | 1015.6 |
| 20260505033259 | 42 | 49 | 4.3 | 5.2 | 0.00 | 0.00 | 0.00 | 41 | 1015.5 |
| 20260505032757 | 43 | 42 | 3.5 | 5.2 | 0.00 | 0.00 | 0.00 | 40 | 1015.4 |
| 20260505032253 | 44 | 36 | 3.5 | 3.5 | 0.00 | 0.00 | 0.00 | 39 | 1015.3 |
| 20260505031750 | 45 | 33 | 3.5 | 3.5 | 0.00 | 0.00 | 0.00 | 37 | 1014.9 |
| 20260505031246 | 45 | 43 | 7.0 | 7.8 | 0.00 | 0.00 | 0.00 | 36 | 1015.1 |
| 20260505030744 | 45 | 16 | 4.3 | 5.2 | 0.00 | 0.00 | 0.00 | 34 | 1014.7 |
| 20260505030240 | 44 | 18 | 3.5 | 3.5 | 0.00 | 0.00 | 0.00 | 32 | 1014.7 |
| 20260505025735 | 46 | 2 | 2.6 | 2.6 | 0.00 | 0.00 | 0.00 | 31 | 1014.7 |
| 20260505025234 | 46 | 11 | 3.5 | 3.5 | 0.00 | 0.00 | 0.00 | 30 | 1014.7 |
| 20260505024732 | 46 | 8 | 2.6 | 2.6 | 0.00 | 0.00 | 0.00 | 30 | 1014.6 |
| 20260505024229 | 47 | 6 | 3.5 | 3.5 | 0.00 | 0.00 | 0.00 | 29 | 1014.3 |
| 20260505023726 | 48 | 20 | 5.2 | 6.1 | 0.00 | 0.00 | 0.00 | 28 | 1014.2 |
| 20260505023223 | 48 | 358 | 2.6 | 2.6 | 0.00 | 0.00 | 0.00 | 27 | 1014.4 |
| 20260505022721 | 50 | 16 | 2.6 | 2.6 | 0.00 | 0.00 | 0.00 | 26 | 1014.2 |
| 20260505022217 | 50 | 353 | 4.3 | 5.2 | 0.00 | 0.00 | 0.00 | 26 | 1014.3 |
| 20260505021714 | 50 | 350 | 3.5 | 5.2 | 0.00 | 0.00 | 0.00 | 25 | 1014.0 |
| 20260505021211 | 51 | 335 | 4.3 | 5.2 | 0.00 | 0.00 | 0.00 | 25 | 1014.1 |
| 20260505020707 | 51 | 329 | 3.5 | 5.2 | 0.00 | 0.00 | 0.00 | 25 | 1013.8 |
| 20260505020202 | 52 | 331 | 4.3 | 5.2 | 0.00 | 0.00 | 0.00 | 25 | 1014.0 |
| 20260505015700 | 53 | 338 | 5.2 | 7.0 | 0.00 | 0.00 | 0.00 | 24 | 1014.1 |
| 20260505015156 | 53 | 356 | 5.2 | 6.1 | 0.00 | 0.00 | 0.00 | 24 | 1013.8 |
| 20260505014654 | 54 | 352 | 10.4 | 12.2 | 0.00 | 0.00 | 0.00 | 23 | 1013.8 |
| 20260505014151 | 54 | 325 | 6.1 | 7.0 | 0.00 | 0.00 | 0.00 | 23 | 1013.8 |
| 20260505013648 | 54 | 325 | 10.4 | 13.9 | 0.00 | 0.00 | 0.00 | 23 | 1013.8 |
| 20260505013145 | 54 | 349 | 8.7 | 9.6 | 0.00 | 0.00 | 0.00 | 23 | 1013.7 |
| 20260505012643 | 54 | 316 | 8.7 | 8.7 | 0.00 | 0.00 | 0.00 | 24 | 1013.7 |
| 20260505012140 | 55 | 310 | 2.6 | 3.5 | 0.00 | 0.00 | 0.00 | 24 | 1013.8 |
| 20260505011636 | 55 | 308 | 5.2 | 7.0 | 0.00 | 0.00 | 0.00 | 24 | 1013.6 |
| 20260505011133 | 55 | 316 | 7.8 | 9.6 | 0.00 | 0.00 | 0.00 | 23 | 1013.5 |
| 20260505010633 | 55 | 339 | 8.7 | 11.3 | 0.00 | 0.00 | 0.00 | 24 | 1013.8 |
| 20260505010130 | 55 | 332 | 7.8 | 8.7 | 0.00 | 0.00 | 0.00 | 23 | 1013.8 |
| 20260505005626 | 55 | 350 | 9.6 | 11.3 | 0.00 | 0.00 | 0.00 | 23 | 1014.1 |
| 20260505005124 | 55 | 6 | 8.7 | 11.3 | 0.00 | 0.00 | 0.00 | 23 | 1013.7 |
| 20260505004621 | 55 | 1 | 8.7 | 11.3 | 0.00 | 0.00 | 0.00 | 23 | 1014.0 |
| 20260505004117 | 55 | 323 | 12.2 | 14.8 | 0.00 | 0.00 | 0.00 | 23 | 1014.2 |
| 20260505003615 | 55 | 337 | 7.0 | 7.8 | 0.00 | 0.00 | 0.00 | 24 | 1013.8 |
| 20260505003112 | 55 | 6 | 8.7 | 9.6 | 0.00 | 0.00 | 0.00 | 24 | 1013.8 |
| 20260505002608 | 56 | 349 | 4.3 | 7.0 | 0.00 | 0.00 | 0.00 | 25 | 1014.0 |
| 20260505002107 | 56 | 2 | 7.0 | 7.8 | 0.00 | 0.00 | 0.00 | 26 | 1014.1 |
| 20260505001603 | 56 | 335 | 6.1 | 7.8 | 0.00 | 0.00 | 0.00 | 26 | 1013.8 |
| 20260505001101 | 55 | 339 | 4.3 | 7.8 | 0.00 | 0.00 | 0.00 | 26 | 1014.1 |
| 20260505000558 | 54 | 346 | 9.6 | 12.2 | 0.00 | 0.00 | 0.00 | 26 | 1014.1 |
| 20260505000055 | 55 | 355 | 11.3 | 13.9 | 0.00 | 0.00 | 0.00 | 27 | 1014.2 |
| 20260504235552 | 56 | 351 | 9.6 | 12.2 | 0.00 | 0.00 | 0.00 | 26 | 1014.1 |
| 20260504235049 | 56 | 359 | 13.9 | 14.8 | 0.00 | 0.00 | 0.00 | 26 | 1014.0 |
| 20260504234546 | 56 | 6 | 7.0 | 9.6 | 0.00 | 0.00 | 0.00 | 28 | 1014.2 |
| 20260504234043 | 55 | 342 | 10.4 | 13.0 | 0.00 | 0.00 | 0.00 | 28 | 1014.2 |
| 20260504233538 | 56 | 326 | 9.6 | 11.3 | 0.00 | 0.00 | 0.00 | 29 | 1014.1 |
| 20260504233035 | 57 | 323 | 10.4 | 13.0 | 0.00 | 0.00 | 0.00 | 29 | 1014.1 |
| 20260504232532 | 56 | 290 | 7.0 | 7.8 | 0.00 | 0.00 | 0.00 | 30 | 1014.1 |
| 20260504232030 | 55 | 306 | 6.1 | 7.0 | 0.00 | 0.00 | 0.00 | 30 | 1014.2 |
| 20260504231526 | 55 | 342 | 7.8 | 9.6 | 0.00 | 0.00 | 0.00 | 30 | 1014.3 |
| 20260504231022 | 55 | 321 | 7.8 | 9.6 | 0.00 | 0.00 | 0.00 | 31 | 1014.1 |
| 20260504230519 | 55 | 311 | 9.6 | 13.9 | 0.00 | 0.00 | 0.00 | 31 | 1014.1 |
| 20260504230018 | 55 | 347 | 7.8 | 8.7 | 0.00 | 0.00 | 0.00 | 32 | 1014.2 |
| 20260504225514 | 55 | 325 | 7.8 | 8.7 | 0.00 | 0.00 | 0.00 | 32 | 1014.4 |
| 20260504225011 | 54 | 330 | 10.4 | 12.2 | 0.00 | 0.00 | 0.00 | 32 | 1014.2 |
| 20260504224508 | 56 | 328 | 8.7 | 9.6 | 0.00 | 0.00 | 0.00 | 31 | 1014.3 |
| 20260504224005 | 55 | 16 | 6.1 | 7.0 | 0.00 | 0.00 | 0.00 | 32 | 1014.1 |
| 20260504223501 | 55 | 323 | 8.7 | 8.7 | 0.00 | 0.00 | 0.00 | 31 | 1014.1 |
| 20260504222957 | 55 | 336 | 7.8 | 8.7 | 0.00 | 0.00 | 0.00 | 32 | 1014.3 |
| 20260504222455 | 54 | 319 | 6.1 | 7.0 | 0.00 | 0.00 | 0.00 | 32 | 1014.0 |
| 20260504221952 | 55 | 321 | 7.8 | 8.7 | 0.00 | 0.00 | 0.00 | 32 | 1014.3 |
| 20260504221449 | 55 | 327 | 10.4 | 12.2 | 0.00 | 0.00 | 0.00 | 31 | 1014.1 |
| 20260504220946 | 56 | 324 | 6.1 | 7.0 | 0.00 | 0.00 | 0.00 | 30 | 1013.8 |
| 20260504220442 | 56 | 339 | 13.0 | 14.8 | 0.00 | 0.00 | 0.00 | 29 | 1014.0 |
| 20260504215939 | 57 | 326 | 6.1 | 7.8 | 0.00 | 0.00 | 0.00 | 29 | 1013.8 |
| 20260504215436 | 56 | 351 | 9.6 | 13.0 | 0.00 | 0.00 | 0.00 | 29 | 1013.8 |
| 20260504214933 | 56 | 341 | 11.3 | 13.9 | 0.00 | 0.00 | 0.00 | 28 | 1014.1 |
| 20260504214429 | 55 | 341 | 10.4 | 11.3 | 0.00 | 0.00 | 0.00 | 29 | 1014.0 |
| 20260504213926 | 56 | 354 | 11.3 | 13.9 | 0.00 | 0.00 | 0.00 | 28 | 1014.2 |
| 20260504213422 | 57 | 342 | 10.4 | 12.2 | 0.00 | 0.00 | 0.00 | 28 | 1014.1 |
| 20260504212920 | 56 | 312 | 9.6 | 12.2 | 0.00 | 0.00 | 0.00 | 28 | 1014.1 |
| 20260504212415 | 55 | 329 | 11.3 | 13.9 | 0.00 | 0.00 | 0.00 | 28 | 1013.8 |
| 20260504211913 | 55 | 308 | 5.2 | 6.1 | 0.00 | 0.00 | 0.00 | 30 | 1014.2 |
| 20260504211409 | 56 | 327 | 13.0 | 16.5 | 0.00 | 0.00 | 0.00 | 29 | 1014.0 |
| 20260504210906 | 55 | 353 | 9.6 | 12.2 | 0.00 | 0.00 | 0.00 | 29 | 1014.1 |
| 20260504210403 | 56 | 330 | 11.3 | 14.8 | 0.00 | 0.00 | 0.00 | 30 | 1014.2 |
| 20260504205900 | 56 | 324 | 11.3 | 12.2 | 0.00 | 0.00 | 0.00 | 30 | 1014.1 |
| 20260504205358 | 57 | 352 | 11.3 | 13.0 | 0.00 | 0.00 | 0.00 | 29 | 1014.0 |
| 20260504204856 | 57 | 347 | 14.8 | 18.2 | 0.00 | 0.00 | 0.00 | 29 | 1014.0 |
| 20260504204354 | 57 | 308 | 17.4 | 21.7 | 0.00 | 0.00 | 0.00 | 27 | 1014.1 |
| 20260504203854 | 57 | 312 | 6.1 | 7.8 | 0.00 | 0.00 | 0.00 | 29 | 1014.0 |
| 20260504203350 | 57 | 339 | 12.2 | 18.2 | 0.00 | 0.00 | 0.00 | 29 | 1014.0 |
| 20260504202846 | 57 | 300 | 12.2 | 14.8 | 0.00 | 0.00 | 0.00 | 30 | 1013.8 |
| 20260504202343 | 57 | 338 | 6.1 | 7.8 | 0.00 | 0.00 | 0.00 | 30 | 1014.1 |
| 20260504201839 | 57 | 336 | 11.3 | 13.0 | 0.00 | 0.00 | 0.00 | 29 | 1014.0 |
| 20260504201337 | 56 | 340 | 7.8 | 9.6 | 0.00 | 0.00 | 0.00 | 30 | 1014.1 |
| 20260504200834 | 57 | 344 | 9.6 | 12.2 | 0.00 | 0.00 | 0.00 | 30 | 1014.0 |